sensor_id;sensor_type;location;lat;lon;timestamp;P1;durP1;ratioP1;P2;durP2;ratioP2
37943;SDS011;23767;42.024;23.086;2023-06-26T00:02:19;13.30;;;8.90;;
37943;SDS011;23767;42.024;23.086;2023-06-26T00:04:45;12.30;;;9.23;;
37943;SDS011;23767;42.024;23.086;2023-06-26T00:07:11;12.73;;;8.73;;
37943;SDS011;23767;42.024;23.086;2023-06-26T00:09:37;13.80;;;8.75;;
37943;SDS011;23767;42.024;23.086;2023-06-26T00:12:03;11.27;;;7.93;;
37943;SDS011;23767;42.024;23.086;2023-06-26T00:14:29;12.85;;;8.50;;
37943;SDS011;23767;42.024;23.086;2023-06-26T00:16:55;15.40;;;9.30;;
37943;SDS011;23767;42.024;23.086;2023-06-26T00:19:21;12.23;;;8.27;;
37943;SDS011;23767;42.024;23.086;2023-06-26T00:21:47;12.55;;;9.40;;
37943;SDS011;23767;42.024;23.086;2023-06-26T00:24:13;13.10;;;9.23;;
37943;SDS011;23767;42.024;23.086;2023-06-26T00:26:40;15.40;;;9.85;;
37943;SDS011;23767;42.024;23.086;2023-06-26T00:29:06;12.98;;;8.75;;
37943;SDS011;23767;42.024;23.086;2023-06-26T00:31:32;12.85;;;9.23;;
37943;SDS011;23767;42.024;23.086;2023-06-26T00:34:00;12.85;;;9.38;;
37943;SDS011;23767;42.024;23.086;2023-06-26T00:36:26;13.20;;;9.57;;
37943;SDS011;23767;42.024;23.086;2023-06-26T00:38:52;12.45;;;8.90;;
37943;SDS011;23767;42.024;23.086;2023-06-26T00:41:18;14.82;;;9.07;;
37943;SDS011;23767;42.024;23.086;2023-06-26T00:43:45;12.93;;;8.00;;
37943;SDS011;23767;42.024;23.086;2023-06-26T00:46:14;12.88;;;9.07;;
37943;SDS011;23767;42.024;23.086;2023-06-26T00:48:41;15.38;;;9.27;;
37943;SDS011;23767;42.024;23.086;2023-06-26T00:51:07;13.85;;;9.73;;
37943;SDS011;23767;42.024;23.086;2023-06-26T00:53:33;11.43;;;8.98;;
37943;SDS011;23767;42.024;23.086;2023-06-26T00:56:00;12.50;;;9.18;;
37943;SDS011;23767;42.024;23.086;2023-06-26T00:58:26;13.50;;;8.88;;
37943;SDS011;23767;42.024;23.086;2023-06-26T01:00:53;11.70;;;9.43;;
37943;SDS011;23767;42.024;23.086;2023-06-26T01:03:22;14.50;;;9.48;;
37943;SDS011;23767;42.024;23.086;2023-06-26T01:05:48;12.57;;;8.82;;
37943;SDS011;23767;42.024;23.086;2023-06-26T01:08:16;12.25;;;8.45;;
37943;SDS011;23767;42.024;23.086;2023-06-26T01:10:43;13.05;;;8.73;;
37943;SDS011;23767;42.024;23.086;2023-06-26T01:13:09;16.02;;;9.40;;
37943;SDS011;23767;42.024;23.086;2023-06-26T01:15:35;14.18;;;9.77;;
37943;SDS011;23767;42.024;23.086;2023-06-26T01:18:01;13.23;;;8.85;;
37943;SDS011;23767;42.024;23.086;2023-06-26T01:20:32;13.98;;;9.45;;
37943;SDS011;23767;42.024;23.086;2023-06-26T01:27:53;13.50;;;9.30;;
37943;SDS011;23767;42.024;23.086;2023-06-26T01:30:20;16.08;;;10.18;;
37943;SDS011;23767;42.024;23.086;2023-06-26T01:32:47;12.20;;;8.95;;
37943;SDS011;23767;42.024;23.086;2023-06-26T01:35:14;14.32;;;11.00;;
37943;SDS011;23767;42.024;23.086;2023-06-26T01:37:40;13.10;;;10.15;;
37943;SDS011;23767;42.024;23.086;2023-06-26T01:40:07;14.38;;;10.70;;
37943;SDS011;23767;42.024;23.086;2023-06-26T01:42:33;13.43;;;10.85;;
37943;SDS011;23767;42.024;23.086;2023-06-26T01:45:05;17.60;;;12.35;;
37943;SDS011;23767;42.024;23.086;2023-06-26T01:47:32;16.65;;;11.70;;
37943;SDS011;23767;42.024;23.086;2023-06-26T01:50:11;18.33;;;11.30;;
37943;SDS011;23767;42.024;23.086;2023-06-26T01:52:42;14.35;;;12.43;;
37943;SDS011;23767;42.024;23.086;2023-06-26T01:55:13;15.15;;;11.93;;
37943;SDS011;23767;42.024;23.086;2023-06-26T01:57:41;16.25;;;12.80;;
37943;SDS011;23767;42.024;23.086;2023-06-26T02:00:08;18.88;;;13.32;;
37943;SDS011;23767;42.024;23.086;2023-06-26T02:02:36;18.30;;;13.55;;
37943;SDS011;23767;42.024;23.086;2023-06-26T02:05:02;18.45;;;14.32;;
37943;SDS011;23767;42.024;23.086;2023-06-26T02:07:28;16.55;;;13.65;;
37943;SDS011;23767;42.024;23.086;2023-06-26T02:09:54;20.27;;;15.15;;
37943;SDS011;23767;42.024;23.086;2023-06-26T02:12:20;18.00;;;14.88;;
37943;SDS011;23767;42.024;23.086;2023-06-26T02:14:46;16.60;;;14.18;;
37943;SDS011;23767;42.024;23.086;2023-06-26T02:17:12;16.55;;;14.52;;
37943;SDS011;23767;42.024;23.086;2023-06-26T02:19:38;16.60;;;14.52;;
37943;SDS011;23767;42.024;23.086;2023-06-26T02:22:12;16.95;;;14.13;;
37943;SDS011;23767;42.024;23.086;2023-06-26T02:24:38;19.35;;;15.27;;
37943;SDS011;23767;42.024;23.086;2023-06-26T02:27:04;18.02;;;14.63;;
37943;SDS011;23767;42.024;23.086;2023-06-26T02:29:30;16.92;;;14.63;;
37943;SDS011;23767;42.024;23.086;2023-06-26T02:31:56;17.92;;;14.25;;
37943;SDS011;23767;42.024;23.086;2023-06-26T02:34:22;16.08;;;13.77;;
37943;SDS011;23767;42.024;23.086;2023-06-26T02:36:48;18.27;;;13.85;;
37943;SDS011;23767;42.024;23.086;2023-06-26T02:39:14;18.95;;;15.10;;
37943;SDS011;23767;42.024;23.086;2023-06-26T02:41:40;16.45;;;13.25;;
37943;SDS011;23767;42.024;23.086;2023-06-26T02:44:06;17.70;;;13.23;;
37943;SDS011;23767;42.024;23.086;2023-06-26T02:46:32;17.27;;;12.38;;
37943;SDS011;23767;42.024;23.086;2023-06-26T02:48:58;15.73;;;12.68;;
37943;SDS011;23767;42.024;23.086;2023-06-26T02:51:24;21.48;;;17.25;;
37943;SDS011;23767;42.024;23.086;2023-06-26T02:53:50;18.13;;;14.85;;
37943;SDS011;23767;42.024;23.086;2023-06-26T02:56:16;17.15;;;14.50;;
37943;SDS011;23767;42.024;23.086;2023-06-26T02:58:42;18.95;;;14.25;;
37943;SDS011;23767;42.024;23.086;2023-06-26T03:01:08;20.92;;;15.18;;
37943;SDS011;23767;42.024;23.086;2023-06-26T03:03:34;18.98;;;14.90;;
37943;SDS011;23767;42.024;23.086;2023-06-26T03:06:05;17.90;;;14.85;;
37943;SDS011;23767;42.024;23.086;2023-06-26T03:08:32;16.83;;;14.00;;
37943;SDS011;23767;42.024;23.086;2023-06-26T03:10:58;19.58;;;14.68;;
37943;SDS011;23767;42.024;23.086;2023-06-26T03:13:24;19.15;;;14.13;;
37943;SDS011;23767;42.024;23.086;2023-06-26T03:15:50;15.80;;;13.15;;
37943;SDS011;23767;42.024;23.086;2023-06-26T03:18:16;19.52;;;16.77;;
37943;SDS011;23767;42.024;23.086;2023-06-26T03:20:42;18.38;;;15.43;;
37943;SDS011;23767;42.024;23.086;2023-06-26T03:23:08;20.20;;;16.08;;
37943;SDS011;23767;42.024;23.086;2023-06-26T03:25:34;20.80;;;15.35;;
37943;SDS011;23767;42.024;23.086;2023-06-26T03:28:00;21.13;;;16.67;;
37943;SDS011;23767;42.024;23.086;2023-06-26T03:30:26;17.58;;;14.77;;
37943;SDS011;23767;42.024;23.086;2023-06-26T03:32:52;17.63;;;14.57;;
37943;SDS011;23767;42.024;23.086;2023-06-26T03:35:18;15.73;;;13.60;;
37943;SDS011;23767;42.024;23.086;2023-06-26T03:37:44;17.08;;;13.55;;
37943;SDS011;23767;42.024;23.086;2023-06-26T03:40:10;15.45;;;13.32;;
37943;SDS011;23767;42.024;23.086;2023-06-26T03:42:36;18.35;;;13.93;;
37943;SDS011;23767;42.024;23.086;2023-06-26T03:45:02;16.55;;;14.02;;
37943;SDS011;23767;42.024;23.086;2023-06-26T03:47:29;16.23;;;14.52;;
37943;SDS011;23767;42.024;23.086;2023-06-26T03:49:55;17.92;;;14.63;;
37943;SDS011;23767;42.024;23.086;2023-06-26T03:52:21;18.85;;;15.32;;
37943;SDS011;23767;42.024;23.086;2023-06-26T03:54:47;17.92;;;15.07;;
37943;SDS011;23767;42.024;23.086;2023-06-26T03:57:13;17.55;;;13.00;;
37943;SDS011;23767;42.024;23.086;2023-06-26T03:59:39;16.83;;;13.10;;
37943;SDS011;23767;42.024;23.086;2023-06-26T04:02:05;16.42;;;12.48;;
37943;SDS011;23767;42.024;23.086;2023-06-26T04:04:32;19.38;;;12.00;;
37943;SDS011;23767;42.024;23.086;2023-06-26T04:06:58;14.63;;;12.20;;
37943;SDS011;23767;42.024;23.086;2023-06-26T04:09:24;16.65;;;12.40;;
37943;SDS011;23767;42.024;23.086;2023-06-26T04:11:51;14.10;;;10.65;;
37943;SDS011;23767;42.024;23.086;2023-06-26T04:14:17;14.07;;;10.65;;
37943;SDS011;23767;42.024;23.086;2023-06-26T04:16:43;12.77;;;10.18;;
37943;SDS011;23767;42.024;23.086;2023-06-26T04:19:10;14.60;;;10.27;;
37943;SDS011;23767;42.024;23.086;2023-06-26T04:21:36;13.85;;;10.35;;
37943;SDS011;23767;42.024;23.086;2023-06-26T04:24:02;11.25;;;10.00;;
37943;SDS011;23767;42.024;23.086;2023-06-26T04:26:28;15.80;;;10.68;;
37943;SDS011;23767;42.024;23.086;2023-06-26T04:28:54;14.40;;;9.85;;
37943;SDS011;23767;42.024;23.086;2023-06-26T04:31:20;15.88;;;9.30;;
37943;SDS011;23767;42.024;23.086;2023-06-26T04:33:47;12.13;;;9.63;;
37943;SDS011;23767;42.024;23.086;2023-06-26T04:36:18;17.23;;;11.50;;
37943;SDS011;23767;42.024;23.086;2023-06-26T04:38:44;14.23;;;12.73;;
37943;SDS011;23767;42.024;23.086;2023-06-26T04:41:11;15.68;;;13.23;;
37943;SDS011;23767;42.024;23.086;2023-06-26T04:43:36;15.45;;;13.48;;
37943;SDS011;23767;42.024;23.086;2023-06-26T04:46:03;18.13;;;13.75;;
37943;SDS011;23767;42.024;23.086;2023-06-26T04:48:29;15.25;;;13.75;;
37943;SDS011;23767;42.024;23.086;2023-06-26T04:50:56;15.98;;;13.70;;
37943;SDS011;23767;42.024;23.086;2023-06-26T04:53:24;15.02;;;13.43;;
37943;SDS011;23767;42.024;23.086;2023-06-26T04:55:50;15.13;;;13.10;;
37943;SDS011;23767;42.024;23.086;2023-06-26T04:58:17;15.15;;;13.02;;
37943;SDS011;23767;42.024;23.086;2023-06-26T05:03:18;16.38;;;12.77;;
37943;SDS011;23767;42.024;23.086;2023-06-26T05:05:45;15.02;;;12.48;;
37943;SDS011;23767;42.024;23.086;2023-06-26T05:10:44;12.77;;;10.85;;
37943;SDS011;23767;42.024;23.086;2023-06-26T05:13:10;14.30;;;11.93;;
37943;SDS011;23767;42.024;23.086;2023-06-26T05:15:36;14.65;;;11.40;;
37943;SDS011;23767;42.024;23.086;2023-06-26T05:18:02;12.82;;;11.00;;
37943;SDS011;23767;42.024;23.086;2023-06-26T05:20:28;15.60;;;11.43;;
37943;SDS011;23767;42.024;23.086;2023-06-26T05:22:55;14.80;;;12.25;;
37943;SDS011;23767;42.024;23.086;2023-06-26T05:25:21;13.75;;;11.57;;
37943;SDS011;23767;42.024;23.086;2023-06-26T05:27:48;15.75;;;11.60;;
37943;SDS011;23767;42.024;23.086;2023-06-26T05:30:14;12.48;;;11.02;;
37943;SDS011;23767;42.024;23.086;2023-06-26T05:32:40;14.32;;;10.68;;
37943;SDS011;23767;42.024;23.086;2023-06-26T05:35:06;13.88;;;10.10;;
37943;SDS011;23767;42.024;23.086;2023-06-26T05:37:33;12.18;;;8.95;;
37943;SDS011;23767;42.024;23.086;2023-06-26T05:40:00;11.30;;;9.48;;
37943;SDS011;23767;42.024;23.086;2023-06-26T05:42:26;14.30;;;9.75;;
37943;SDS011;23767;42.024;23.086;2023-06-26T05:44:55;12.60;;;8.85;;
37943;SDS011;23767;42.024;23.086;2023-06-26T05:47:21;12.43;;;8.88;;
37943;SDS011;23767;42.024;23.086;2023-06-26T05:49:47;12.65;;;8.05;;
37943;SDS011;23767;42.024;23.086;2023-06-26T05:52:13;9.75;;;7.47;;
37943;SDS011;23767;42.024;23.086;2023-06-26T05:54:40;11.27;;;8.23;;
37943;SDS011;23767;42.024;23.086;2023-06-26T05:57:06;9.75;;;7.38;;
37943;SDS011;23767;42.024;23.086;2023-06-26T05:59:32;11.70;;;7.80;;
37943;SDS011;23767;42.024;23.086;2023-06-26T06:01:58;9.77;;;8.05;;
37943;SDS011;23767;42.024;23.086;2023-06-26T06:04:24;10.63;;;8.18;;
37943;SDS011;23767;42.024;23.086;2023-06-26T06:06:50;9.70;;;7.85;;
37943;SDS011;23767;42.024;23.086;2023-06-26T06:09:17;11.35;;;7.47;;
37943;SDS011;23767;42.024;23.086;2023-06-26T06:11:43;12.02;;;7.85;;
37943;SDS011;23767;42.024;23.086;2023-06-26T06:14:09;11.90;;;7.65;;
37943;SDS011;23767;42.024;23.086;2023-06-26T06:16:35;11.95;;;7.45;;
37943;SDS011;23767;42.024;23.086;2023-06-26T06:19:01;9.90;;;7.60;;
37943;SDS011;23767;42.024;23.086;2023-06-26T06:21:28;12.25;;;7.35;;
37943;SDS011;23767;42.024;23.086;2023-06-26T06:23:55;11.73;;;7.93;;
37943;SDS011;23767;42.024;23.086;2023-06-26T06:26:21;9.27;;;7.32;;
37943;SDS011;23767;42.024;23.086;2023-06-26T06:28:47;11.52;;;7.47;;
37943;SDS011;23767;42.024;23.086;2023-06-26T06:31:13;10.45;;;8.07;;
37943;SDS011;23767;42.024;23.086;2023-06-26T06:33:39;11.18;;;7.88;;
37943;SDS011;23767;42.024;23.086;2023-06-26T06:36:05;13.80;;;8.23;;
37943;SDS011;23767;42.024;23.086;2023-06-26T06:38:31;9.13;;;7.80;;
37943;SDS011;23767;42.024;23.086;2023-06-26T06:40:57;11.98;;;8.15;;
37943;SDS011;23767;42.024;23.086;2023-06-26T06:43:23;15.00;;;8.60;;
37943;SDS011;23767;42.024;23.086;2023-06-26T06:45:49;10.15;;;7.95;;
37943;SDS011;23767;42.024;23.086;2023-06-26T06:48:15;11.20;;;7.75;;
37943;SDS011;23767;42.024;23.086;2023-06-26T06:50:41;13.35;;;8.73;;
37943;SDS011;23767;42.024;23.086;2023-06-26T06:53:07;9.52;;;8.23;;
37943;SDS011;23767;42.024;23.086;2023-06-26T06:55:33;10.85;;;9.07;;
37943;SDS011;23767;42.024;23.086;2023-06-26T06:57:59;10.68;;;8.30;;
37943;SDS011;23767;42.024;23.086;2023-06-26T07:00:25;13.68;;;9.27;;
37943;SDS011;23767;42.024;23.086;2023-06-26T07:02:52;16.33;;;9.55;;
37943;SDS011;23767;42.024;23.086;2023-06-26T07:05:18;13.45;;;8.70;;
37943;SDS011;23767;42.024;23.086;2023-06-26T07:07:44;13.07;;;9.13;;
37943;SDS011;23767;42.024;23.086;2023-06-26T07:10:12;14.10;;;8.60;;
37943;SDS011;23767;42.024;23.086;2023-06-26T07:12:38;10.55;;;8.70;;
37943;SDS011;23767;42.024;23.086;2023-06-26T07:15:05;12.65;;;8.20;;
37943;SDS011;23767;42.024;23.086;2023-06-26T07:17:31;12.50;;;8.77;;
37943;SDS011;23767;42.024;23.086;2023-06-26T07:19:58;12.63;;;9.05;;
37943;SDS011;23767;42.024;23.086;2023-06-26T07:22:24;16.67;;;8.82;;
37943;SDS011;23767;42.024;23.086;2023-06-26T07:24:50;11.70;;;8.48;;
37943;SDS011;23767;42.024;23.086;2023-06-26T07:27:17;10.45;;;8.50;;
37943;SDS011;23767;42.024;23.086;2023-06-26T07:29:44;12.25;;;8.45;;
37943;SDS011;23767;42.024;23.086;2023-06-26T07:32:10;10.40;;;7.80;;
37943;SDS011;23767;42.024;23.086;2023-06-26T07:34:36;10.43;;;8.05;;
37943;SDS011;23767;42.024;23.086;2023-06-26T07:37:02;11.82;;;8.05;;
37943;SDS011;23767;42.024;23.086;2023-06-26T07:39:28;11.70;;;7.82;;
37943;SDS011;23767;42.024;23.086;2023-06-26T07:41:54;11.65;;;7.07;;
37943;SDS011;23767;42.024;23.086;2023-06-26T07:44:21;10.70;;;6.78;;
37943;SDS011;23767;42.024;23.086;2023-06-26T07:46:47;11.55;;;7.22;;
37943;SDS011;23767;42.024;23.086;2023-06-26T07:49:13;14.52;;;7.88;;
37943;SDS011;23767;42.024;23.086;2023-06-26T07:51:39;10.48;;;7.78;;
37943;SDS011;23767;42.024;23.086;2023-06-26T07:54:05;11.88;;;7.15;;
37943;SDS011;23767;42.024;23.086;2023-06-26T07:56:31;9.02;;;6.07;;
37943;SDS011;23767;42.024;23.086;2023-06-26T07:58:57;10.25;;;7.22;;
37943;SDS011;23767;42.024;23.086;2023-06-26T08:01:25;10.13;;;6.25;;
37943;SDS011;23767;42.024;23.086;2023-06-26T08:03:51;10.50;;;6.30;;
37943;SDS011;23767;42.024;23.086;2023-06-26T08:06:17;9.35;;;6.22;;
37943;SDS011;23767;42.024;23.086;2023-06-26T08:08:43;9.38;;;5.78;;
37943;SDS011;23767;42.024;23.086;2023-06-26T08:11:09;10.48;;;6.22;;
37943;SDS011;23767;42.024;23.086;2023-06-26T08:13:36;11.32;;;6.55;;
37943;SDS011;23767;42.024;23.086;2023-06-26T08:16:02;7.88;;;5.78;;
37943;SDS011;23767;42.024;23.086;2023-06-26T08:18:28;9.95;;;5.75;;
37943;SDS011;23767;42.024;23.086;2023-06-26T08:20:54;8.82;;;6.30;;
37943;SDS011;23767;42.024;23.086;2023-06-26T08:23:20;12.38;;;6.45;;
37943;SDS011;23767;42.024;23.086;2023-06-26T08:25:47;9.00;;;6.30;;
37943;SDS011;23767;42.024;23.086;2023-06-26T08:28:13;9.50;;;5.95;;
37943;SDS011;23767;42.024;23.086;2023-06-26T08:30:39;8.60;;;6.07;;
37943;SDS011;23767;42.024;23.086;2023-06-26T08:33:05;8.52;;;6.32;;
37943;SDS011;23767;42.024;23.086;2023-06-26T08:35:37;6.78;;;6.03;;
37943;SDS011;23767;42.024;23.086;2023-06-26T08:38:03;8.65;;;6.18;;
37943;SDS011;23767;42.024;23.086;2023-06-26T08:40:29;7.95;;;6.40;;
37943;SDS011;23767;42.024;23.086;2023-06-26T08:42:55;15.52;;;6.45;;
37943;SDS011;23767;42.024;23.086;2023-06-26T08:45:21;7.70;;;6.90;;
37943;SDS011;23767;42.024;23.086;2023-06-26T08:47:48;11.63;;;7.10;;
37943;SDS011;23767;42.024;23.086;2023-06-26T08:50:17;10.77;;;7.53;;
37943;SDS011;23767;42.024;23.086;2023-06-26T08:53:00;11.25;;;7.35;;
37943;SDS011;23767;42.024;23.086;2023-06-26T08:55:29;9.13;;;6.82;;
37943;SDS011;23767;42.024;23.086;2023-06-26T08:57:57;9.48;;;7.13;;
37943;SDS011;23767;42.024;23.086;2023-06-26T09:00:23;9.43;;;7.63;;
37943;SDS011;23767;42.024;23.086;2023-06-26T09:02:50;7.65;;;6.85;;
37943;SDS011;23767;42.024;23.086;2023-06-26T09:05:16;8.57;;;7.40;;
37943;SDS011;23767;42.024;23.086;2023-06-26T09:07:42;9.27;;;6.78;;
37943;SDS011;23767;42.024;23.086;2023-06-26T09:10:08;9.90;;;7.18;;
37943;SDS011;23767;42.024;23.086;2023-06-26T09:12:34;11.10;;;7.00;;
37943;SDS011;23767;42.024;23.086;2023-06-26T09:15:00;8.45;;;6.05;;
37943;SDS011;23767;42.024;23.086;2023-06-26T09:17:32;9.77;;;6.72;;
37943;SDS011;23767;42.024;23.086;2023-06-26T09:19:58;13.88;;;7.97;;
37943;SDS011;23767;42.024;23.086;2023-06-26T09:22:25;7.75;;;5.68;;
37943;SDS011;23767;42.024;23.086;2023-06-26T09:24:51;11.57;;;5.88;;
37943;SDS011;23767;42.024;23.086;2023-06-26T09:27:17;8.18;;;5.50;;
37943;SDS011;23767;42.024;23.086;2023-06-26T09:29:46;7.20;;;5.57;;
37943;SDS011;23767;42.024;23.086;2023-06-26T09:32:14;9.05;;;6.60;;
37943;SDS011;23767;42.024;23.086;2023-06-26T09:34:41;10.75;;;5.60;;
37943;SDS011;23767;42.024;23.086;2023-06-26T09:37:07;8.70;;;6.30;;
37943;SDS011;23767;42.024;23.086;2023-06-26T09:39:33;10.75;;;5.78;;
37943;SDS011;23767;42.024;23.086;2023-06-26T09:41:59;8.43;;;6.25;;
37943;SDS011;23767;42.024;23.086;2023-06-26T09:44:26;7.97;;;6.22;;
37943;SDS011;23767;42.024;23.086;2023-06-26T09:46:54;8.52;;;5.97;;
37943;SDS011;23767;42.024;23.086;2023-06-26T09:49:20;9.73;;;6.40;;
37943;SDS011;23767;42.024;23.086;2023-06-26T09:51:46;7.35;;;5.65;;
37943;SDS011;23767;42.024;23.086;2023-06-26T09:54:15;9.05;;;6.05;;
37943;SDS011;23767;42.024;23.086;2023-06-26T09:56:42;7.80;;;5.90;;
37943;SDS011;23767;42.024;23.086;2023-06-26T09:59:08;9.15;;;5.57;;
37943;SDS011;23767;42.024;23.086;2023-06-26T10:01:36;6.75;;;5.43;;
37943;SDS011;23767;42.024;23.086;2023-06-26T10:04:02;6.60;;;4.95;;
37943;SDS011;23767;42.024;23.086;2023-06-26T10:06:36;7.82;;;5.57;;
37943;SDS011;23767;42.024;23.086;2023-06-26T10:09:02;7.60;;;5.05;;
37943;SDS011;23767;42.024;23.086;2023-06-26T10:11:40;9.43;;;4.70;;
37943;SDS011;23767;42.024;23.086;2023-06-26T10:14:07;7.97;;;4.88;;
37943;SDS011;23767;42.024;23.086;2023-06-26T10:16:33;5.63;;;4.10;;
37943;SDS011;23767;42.024;23.086;2023-06-26T10:19:01;7.88;;;4.93;;
37943;SDS011;23767;42.024;23.086;2023-06-26T10:21:29;6.43;;;4.55;;
37943;SDS011;23767;42.024;23.086;2023-06-26T10:23:56;7.25;;;4.40;;
37943;SDS011;23767;42.024;23.086;2023-06-26T10:26:23;6.55;;;4.63;;
37943;SDS011;23767;42.024;23.086;2023-06-26T10:28:50;9.55;;;4.43;;
37943;SDS011;23767;42.024;23.086;2023-06-26T10:31:21;6.03;;;3.85;;
37943;SDS011;23767;42.024;23.086;2023-06-26T10:33:49;5.63;;;4.05;;
37943;SDS011;23767;42.024;23.086;2023-06-26T10:36:16;5.65;;;3.92;;
37943;SDS011;23767;42.024;23.086;2023-06-26T10:38:49;7.88;;;4.00;;
37943;SDS011;23767;42.024;23.086;2023-06-26T10:41:19;5.43;;;3.70;;
37943;SDS011;23767;42.024;23.086;2023-06-26T10:43:45;8.48;;;4.55;;
37943;SDS011;23767;42.024;23.086;2023-06-26T10:46:14;6.55;;;3.50;;
37943;SDS011;23767;42.024;23.086;2023-06-26T10:48:59;6.40;;;3.30;;
37943;SDS011;23767;42.024;23.086;2023-06-26T10:51:28;6.60;;;3.20;;
37943;SDS011;23767;42.024;23.086;2023-06-26T10:53:55;10.20;;;3.53;;
37943;SDS011;23767;42.024;23.086;2023-06-26T10:56:21;7.60;;;3.88;;
37943;SDS011;23767;42.024;23.086;2023-06-26T10:58:47;7.43;;;3.78;;
37943;SDS011;23767;42.024;23.086;2023-06-26T11:01:14;8.65;;;3.75;;
37943;SDS011;23767;42.024;23.086;2023-06-26T11:03:41;6.47;;;3.42;;
37943;SDS011;23767;42.024;23.086;2023-06-26T11:08:49;7.05;;;3.70;;
37943;SDS011;23767;42.024;23.086;2023-06-26T11:11:17;6.27;;;4.30;;
37943;SDS011;23767;42.024;23.086;2023-06-26T11:13:44;8.07;;;4.70;;
37943;SDS011;23767;42.024;23.086;2023-06-26T11:16:11;6.10;;;3.95;;
37943;SDS011;23767;42.024;23.086;2023-06-26T11:18:37;5.40;;;4.20;;
37943;SDS011;23767;42.024;23.086;2023-06-26T11:21:07;9.95;;;5.07;;
37943;SDS011;23767;42.024;23.086;2023-06-26T11:23:34;6.78;;;4.28;;
37943;SDS011;23767;42.024;23.086;2023-06-26T11:26:14;9.70;;;4.50;;
37943;SDS011;23767;42.024;23.086;2023-06-26T11:28:45;9.23;;;5.00;;
37943;SDS011;23767;42.024;23.086;2023-06-26T11:31:23;11.98;;;5.13;;
37943;SDS011;23767;42.024;23.086;2023-06-26T11:33:49;7.50;;;5.03;;
37943;SDS011;23767;42.024;23.086;2023-06-26T11:36:15;7.22;;;4.53;;
37943;SDS011;23767;42.024;23.086;2023-06-26T11:38:41;7.45;;;4.90;;
37943;SDS011;23767;42.024;23.086;2023-06-26T11:41:07;6.10;;;4.70;;
37943;SDS011;23767;42.024;23.086;2023-06-26T11:43:34;6.40;;;4.93;;
37943;SDS011;23767;42.024;23.086;2023-06-26T11:46:00;7.13;;;4.78;;
37943;SDS011;23767;42.024;23.086;2023-06-26T11:48:26;7.97;;;5.20;;
37943;SDS011;23767;42.024;23.086;2023-06-26T11:50:52;9.25;;;5.10;;
37943;SDS011;23767;42.024;23.086;2023-06-26T11:53:18;8.68;;;4.82;;
37943;SDS011;23767;42.024;23.086;2023-06-26T11:55:44;8.82;;;4.82;;
37943;SDS011;23767;42.024;23.086;2023-06-26T11:58:10;8.48;;;4.95;;
37943;SDS011;23767;42.024;23.086;2023-06-26T12:00:41;9.20;;;5.50;;
37943;SDS011;23767;42.024;23.086;2023-06-26T12:03:07;9.63;;;5.57;;
37943;SDS011;23767;42.024;23.086;2023-06-26T12:05:33;7.97;;;5.07;;
37943;SDS011;23767;42.024;23.086;2023-06-26T12:07:59;6.65;;;5.10;;
37943;SDS011;23767;42.024;23.086;2023-06-26T12:10:26;13.63;;;5.35;;
37943;SDS011;23767;42.024;23.086;2023-06-26T12:12:53;9.98;;;5.38;;
37943;SDS011;23767;42.024;23.086;2023-06-26T12:15:23;8.80;;;5.20;;
37943;SDS011;23767;42.024;23.086;2023-06-26T12:17:49;6.22;;;4.65;;
37943;SDS011;23767;42.024;23.086;2023-06-26T12:20:19;9.35;;;4.40;;
37943;SDS011;23767;42.024;23.086;2023-06-26T12:22:46;12.85;;;5.32;;
37943;SDS011;23767;42.024;23.086;2023-06-26T12:25:13;8.02;;;4.97;;
37943;SDS011;23767;42.024;23.086;2023-06-26T12:27:39;9.70;;;5.35;;
37943;SDS011;23767;42.024;23.086;2023-06-26T12:30:06;9.65;;;4.70;;
37943;SDS011;23767;42.024;23.086;2023-06-26T12:32:32;11.32;;;4.40;;
37943;SDS011;23767;42.024;23.086;2023-06-26T12:34:58;14.13;;;4.70;;
37943;SDS011;23767;42.024;23.086;2023-06-26T12:37:24;7.78;;;5.15;;
37943;SDS011;23767;42.024;23.086;2023-06-26T12:39:51;6.53;;;4.60;;
37943;SDS011;23767;42.024;23.086;2023-06-26T12:42:19;11.60;;;4.60;;
37943;SDS011;23767;42.024;23.086;2023-06-26T12:44:45;11.15;;;4.85;;
37943;SDS011;23767;42.024;23.086;2023-06-26T12:47:11;10.80;;;4.50;;
37943;SDS011;23767;42.024;23.086;2023-06-26T12:49:41;8.52;;;4.55;;
37943;SDS011;23767;42.024;23.086;2023-06-26T12:52:17;7.03;;;4.53;;
37943;SDS011;23767;42.024;23.086;2023-06-26T12:54:46;7.65;;;4.35;;
37943;SDS011;23767;42.024;23.086;2023-06-26T12:57:13;8.50;;;4.68;;
37943;SDS011;23767;42.024;23.086;2023-06-26T12:59:39;12.88;;;4.88;;
37943;SDS011;23767;42.024;23.086;2023-06-26T13:02:06;9.82;;;4.50;;
37943;SDS011;23767;42.024;23.086;2023-06-26T13:04:33;8.07;;;4.60;;
37943;SDS011;23767;42.024;23.086;2023-06-26T13:07:00;7.97;;;4.72;;
37943;SDS011;23767;42.024;23.086;2023-06-26T13:09:26;8.43;;;4.60;;
37943;SDS011;23767;42.024;23.086;2023-06-26T13:11:52;11.43;;;4.88;;
37943;SDS011;23767;42.024;23.086;2023-06-26T13:14:19;6.65;;;4.60;;
37943;SDS011;23767;42.024;23.086;2023-06-26T13:16:45;7.57;;;4.70;;
37943;SDS011;23767;42.024;23.086;2023-06-26T13:19:11;10.68;;;5.70;;
37943;SDS011;23767;42.024;23.086;2023-06-26T13:21:37;7.15;;;5.07;;
37943;SDS011;23767;42.024;23.086;2023-06-26T13:24:04;11.65;;;4.95;;
37943;SDS011;23767;42.024;23.086;2023-06-26T13:26:30;9.45;;;4.80;;
37943;SDS011;23767;42.024;23.086;2023-06-26T13:28:56;6.32;;;4.38;;
37943;SDS011;23767;42.024;23.086;2023-06-26T13:31:24;8.48;;;4.97;;
37943;SDS011;23767;42.024;23.086;2023-06-26T13:33:50;9.38;;;5.32;;
37943;SDS011;23767;42.024;23.086;2023-06-26T13:36:19;8.48;;;4.70;;
37943;SDS011;23767;42.024;23.086;2023-06-26T13:38:46;8.30;;;5.18;;
37943;SDS011;23767;42.024;23.086;2023-06-26T13:41:14;8.50;;;5.30;;
37943;SDS011;23767;42.024;23.086;2023-06-26T13:43:40;9.98;;;4.65;;
37943;SDS011;23767;42.024;23.086;2023-06-26T13:46:06;8.65;;;4.28;;
37943;SDS011;23767;42.024;23.086;2023-06-26T13:48:32;6.60;;;3.90;;
37943;SDS011;23767;42.024;23.086;2023-06-26T13:50:58;7.00;;;4.60;;
37943;SDS011;23767;42.024;23.086;2023-06-26T13:53:25;6.60;;;4.85;;
37943;SDS011;23767;42.024;23.086;2023-06-26T13:55:51;6.80;;;4.43;;
37943;SDS011;23767;42.024;23.086;2023-06-26T13:58:17;7.07;;;4.93;;
37943;SDS011;23767;42.024;23.086;2023-06-26T14:00:44;6.93;;;4.40;;
37943;SDS011;23767;42.024;23.086;2023-06-26T14:03:10;7.28;;;4.38;;
37943;SDS011;23767;42.024;23.086;2023-06-26T14:05:36;6.05;;;4.70;;
37943;SDS011;23767;42.024;23.086;2023-06-26T14:08:03;6.05;;;4.45;;
37943;SDS011;23767;42.024;23.086;2023-06-26T14:10:29;8.27;;;4.50;;
37943;SDS011;23767;42.024;23.086;2023-06-26T14:12:55;7.38;;;4.78;;
37943;SDS011;23767;42.024;23.086;2023-06-26T14:15:22;6.00;;;4.32;;
37943;SDS011;23767;42.024;23.086;2023-06-26T14:17:48;8.77;;;4.65;;
37943;SDS011;23767;42.024;23.086;2023-06-26T14:20:15;7.30;;;4.25;;
37943;SDS011;23767;42.024;23.086;2023-06-26T14:22:42;9.75;;;4.40;;
37943;SDS011;23767;42.024;23.086;2023-06-26T14:25:11;10.73;;;4.30;;
37943;SDS011;23767;42.024;23.086;2023-06-26T14:27:38;5.63;;;4.20;;
37943;SDS011;23767;42.024;23.086;2023-06-26T14:30:04;7.78;;;5.20;;
37943;SDS011;23767;42.024;23.086;2023-06-26T14:32:30;8.60;;;4.90;;
37943;SDS011;23767;42.024;23.086;2023-06-26T14:34:56;7.13;;;4.35;;